This is the latest recevied weather packets stored in our database for station/object OK1VCF-5. If no packets are shown the sender has not sent any weather packets the latest 1 day(s).
| Time | Temp. | Humidity | Pressure | Rain* | Wind** | Luminosity | Snow |
|---|---|---|---|---|---|---|---|
| 1836274112 | 10° C | 94% | 1027.4 hPa | - | 0 m/s | - | - |
| 1778013919 | 16.11° C | - | - | - | 0 m/s | - | - |
| 1778013918 | 16.11° C | 75% | 1010 hPa | - | 0 m/s | - | - |
| 1778013017 | 16.67° C | 71% | 1009.9 hPa | - | 0 m/s | - | - |
| 1778012116 | 16.67° C | 74% | 1009.5 hPa | - | 0 m/s | - | - |
| 1778011217 | 15.56° C | 76% | 1008.7 hPa | - | 0 m/s | - | - |
| 1778010315 | 16.67° C | 76% | 1008.5 hPa | - | 0 m/s | - | - |
| 1778009414 | 16.67° C | 74% | 1008.4 hPa | - | 0 m/s | - | - |
| 1778008514 | 16.11° C | 76% | 1007.8 hPa | - | 0 m/s | - | - |
| 1778008513 | 16.11° C | 76% | 1007.8 hPa | - | 0 m/s | - | - |
| 1778007613 | 16.67° C | 77% | 1007.7 hPa | - | 0 m/s | - | - |
| 1778006713 | 16.67° C | 71% | 1007.7 hPa | - | 0 m/s | - | - |
| 1778003109 | 18.33° C | 63% | 1007.8 hPa | - | 0 m/s | - | - |
| 1778002208 | 18.89° C | 62% | 1008 hPa | - | 0 m/s | - | - |
| 1778001307 | 18.89° C | 61% | 1008 hPa | - | 0 m/s | - | - |
| 1778000406 | 20° C | 60% | 1008.1 hPa | - | 0 m/s | - | - |
| 1777999504 | 20° C | 62% | 1008.3 hPa | - | 0 m/s | - | - |
| 1777995001 | 23.89° C | - | - | - | 0 m/s | - | - |
| 1777995000 | 23.89° C | 48% | 1008.4 hPa | - | 0 m/s | - | - |
| 1777994100 | 23.33° C | 54% | 1008.3 hPa | - | 0 m/s | - | - |
| 1777993199 | 23.33° C | 58% | 1008.4 hPa | - | 0 m/s | - | - |
| 1777992300 | 21.11° C | 64% | 1008.6 hPa | - | 0 m/s | - | - |
| 1777991399 | 19.44° C | 74% | 1009 hPa | - | 0 m/s | - | - |
| 1777990498 | 17.78° C | 76% | 1008.8 hPa | - | 0 m/s | - | - |
| 1777989597 | 20° C | 73% | 1009.2 hPa | - | 0 m/s | - | - |
* Rain since midnight (hover to see other rain measurements)
** Current wind speed in m/s (hover to see current wind gust speed)